ADDS METAR Data INFO
IDs: Format: Raw Decoded Include TAF

Data at: 0110 UTC 21 Oct 2017

KHHG 210055Z AUTO 00000KT 10SM CLR 17/09 A3015 RMK AO2 T01720090
KHHG 210035Z AUTO 00000KT 10SM CLR 18/09 A3015 RMK AO2 T01760092
KHHG 210015Z AUTO 00000KT 10SM CLR 17/10 A3015 RMK AO2 T01720095
KHHG 202355Z AUTO 00000KT 10SM CLR 18/09 A3015 RMK AO2 T01750092 10245 20175
KHHG 202335Z AUTO 00000KT 10SM CLR 19/09 A3015 RMK AO2 T01900092
KHHG 202315Z AUTO 00000KT 10SM CLR 19/10 A3015 RMK AO2 T01920095
KHHG 202255Z AUTO 00000KT 10SM CLR 21/09 A3015 RMK AO2 T02110088
KHHG 202235Z AUTO 00000KT 10SM CLR 22/09 A3014 RMK AO2 T02210087
KHHG 202215Z AUTO 19005KT 10SM CLR 23/09 A3015 RMK AO2 T02300089
KHHG 202155Z AUTO 21006KT 10SM CLR 23/09 A3015 RMK AO2 T02330086
KHHG 202135Z AUTO 19004KT 10SM CLR 24/09 A3015 RMK AO2 T02370088
KHHG 202115Z AUTO 21005KT 10SM CLR 24/08 A3015 RMK AO2 T02400084
KHHG 202055Z AUTO 19005KT 10SM CLR 24/09 A3016 RMK AO2 T02400086
KHHG 202035Z AUTO 20005KT 10SM CLR 24/09 A3016 RMK AO2 T02400088
KHHG 202015Z AUTO 19007KT 10SM CLR 24/08 A3017 RMK AO2 T02430084
KHHG 201955Z AUTO 18007KT 10SM CLR 24/09 A3017 RMK AO2 T02430094
KHHG 201935Z AUTO 19005KT 10SM CLR 24/10 A3017 RMK AO2 T02400095
KHHG 201915Z AUTO 20007KT 170V240 10SM CLR 24/10 A3017 RMK AO2 T02410095
KHHG 201855Z AUTO 21005KT 10SM CLR 24/10 A3019 RMK AO2 T02400096
KHHG 201835Z AUTO 21008KT 10SM CLR 24/10 A3019 RMK AO2 T02390101
KHHG 201815Z AUTO 23006KT 10SM CLR 24/10 A3020 RMK AO2 T02360099
KHHG 201755Z AUTO 19007KT 10SM CLR 24/10 A3021 RMK AO2 T02360098 10236 20064
KHHG 201735Z AUTO 21009KT 10SM CLR 24/10 A3022 RMK AO2 T02350099
KHHG 201715Z AUTO 19009KT 10SM CLR 23/10 A3023 RMK AO2 T02310098
KHHG 201655Z AUTO 21004KT 10SM CLR 23/10 A3024 RMK AO2 T02280104
KHHG 201635Z AUTO 21007KT 10SM CLR 22/11 A3025 RMK AO2 T02240107
KHHG 201615Z AUTO 17003KT 10SM CLR 21/12 A3025 RMK AO2 T02140116
KHHG 201555Z AUTO 19003KT 10SM CLR 21/11 A3026 RMK AO2 T02050113
KHHG 201535Z AUTO 21005KT 10SM CLR 19/12 A3027 RMK AO2 T01940116
KHHG 201515Z AUTO 00000KT 10SM CLR 19/12 A3027 RMK AO2 T01850121
KHHG 201455Z AUTO 00000KT 10SM CLR 17/12 A3028 RMK AO2 T01730120
KHHG 201435Z AUTO 21004KT 10SM CLR 16/12 A3028 RMK AO2 T01610121
KHHG 201415Z AUTO 20003KT 10SM CLR 15/12 A3028 RMK AO2 T01480123
KHHG 201355Z AUTO 00000KT 10SM CLR 13/12 A3028 RMK AO2 T01340118
KHHG 201335Z AUTO 00000KT 10SM CLR 12/11 A3027 RMK AO2 T01210112
KHHG 201315Z AUTO 00000KT 7SM CLR 11/10 A3027 RMK AO2 T01060099
KHHG 201255Z AUTO 00000KT 5SM BR CLR 08/08 A3027 RMK AO2 T00830077
KHHG 201235Z AUTO 00000KT 3SM BR CLR 07/07 A3026 RMK AO2 T00710065
KHHG 201215Z AUTO 00000KT 3SM BR CLR 06/06 A3026 RMK AO2 T00640057
KHHG 201155Z AUTO 00000KT 7SM CLR 07/06 A3025 RMK AO2 T00650060 10088 20060
KHHG 201135Z AUTO 00000KT 10SM CLR 06/05 A3025 RMK AO2 T00600054
KHHG 201115Z AUTO 00000KT 10SM CLR 07/06 A3025 RMK AO2 T00670061
KHHG 201055Z AUTO 00000KT 7SM CLR 08/07 A3024 RMK AO2 T00750069
KHHG 201035Z AUTO 00000KT 1SM BR VV007 07/07 A3024 RMK AO2 VIS 1/4V5 T00720066
KHHG 201015Z AUTO 00000KT 3/4SM BR VV005 08/07 A3023 RMK AO2 T00780072
KHHG 200955Z AUTO 00000KT 4SM BR CLR 08/08 A3023 RMK AO2 T00830077
KHHG 200935Z AUTO 17003KT 7SM CLR 08/07 A3023 RMK AO2 T00760069
KHHG 200915Z AUTO 00000KT 5SM BR CLR 08/07 A3022 RMK AO2 T00750069
KHHG 200855Z AUTO 00000KT 2 1/2SM BR CLR 08/08 A3022 RMK AO2 T00810075
KHHG 200835Z AUTO 00000KT 10SM CLR 08/07 A3022 RMK AO2 T00770071
KHHG 200815Z AUTO 00000KT 3SM BR CLR 08/08 A3022 RMK AO2 T00820076
KHHG 200755Z AUTO 00000KT 5SM BR CLR 08/08 A3022 RMK AO2 T00820075
KHHG 200735Z AUTO 00000KT 5SM BR CLR 09/08 A3022 RMK AO2 T00850079
KHHG 200715Z AUTO 00000KT 10SM CLR 08/08 A3022 RMK AO2 T00830077
KHHG 200655Z AUTO 00000KT 7SM CLR 09/08 A3022 RMK AO2 T00850078
KHHG 200635Z AUTO 00000KT 10SM CLR 09/08 A3022 RMK AO2 T00850078
KHHG 200615Z AUTO 00000KT 10SM CLR 08/07 A3022 RMK AO2 T00800073
KHHG 200555Z AUTO 00000KT 7SM CLR 09/08 A3022 RMK AO2 T00870080 10150 20085
KHHG 200535Z AUTO 00000KT 1 1/4SM BR VV007 09/08 A3022 RMK AO2 T00850079
KHHG 200515Z AUTO 00000KT 7SM CLR 09/08 A3021 RMK AO2 T00870081
KHHG 200455Z AUTO 00000KT 10SM CLR 09/08 A3021 RMK AO2 T00900084 402200089
KHHG 200435Z AUTO 00000KT 7SM CLR 09/09 A3021 RMK AO2 T00910085
KHHG 200415Z AUTO 00000KT 10SM CLR 10/09 A3021 RMK AO2 T01000093
KHHG 200355Z AUTO 00000KT 10SM CLR 09/09 A3021 RMK AO2 T00920085
KHHG 200335Z AUTO 00000KT 10SM CLR 09/09 A3021 RMK AO2 T00940088
KHHG 200315Z AUTO 00000KT 10SM CLR 10/10 A3021 RMK AO2 T01030097
KHHG 200255Z AUTO 00000KT 10SM CLR 11/10 A3021 RMK AO2 T01100102
KHHG 200235Z AUTO 00000KT 10SM CLR 10/10 A3020 RMK AO2 T01030097
KHHG 200215Z AUTO 00000KT 10SM CLR 11/11 A3020 RMK AO2 T01110105
KHHG 200155Z AUTO 00000KT 10SM CLR 11/10 A3020 RMK AO2 T01120103
KHHG 200135Z AUTO 00000KT 10SM CLR 12/11 A3020 RMK AO2 T01210110
KHHG 200115Z AUTO 00000KT 10SM CLR 12/11 A3019 RMK AO2 T01230109
KHHG 200055Z AUTO 00000KT 10SM CLR 13/11 A3019 RMK AO2 T01250105
KHHG 200035Z AUTO 00000KT 10SM CLR 13/09 A3019 RMK AO2 T01320091
KHHG 200015Z AUTO 00000KT 10SM CLR 14/09 A3019 RMK AO2 T01380090
KHHG 192355Z AUTO 00000KT 10SM CLR 15/09 A3019 RMK AO2 T01500092 10220 20150
KHHG 192335Z AUTO 00000KT 10SM CLR 17/10 A3019 RMK AO2 T01650096
KHHG 192315Z AUTO 00000KT 10SM CLR 18/10 A3018 RMK AO2 T01760096
KHHG 192255Z AUTO 00000KT 10SM CLR 18/10 A3018 RMK AO2 T01820100
KHHG 192235Z AUTO 00000KT 10SM CLR 20/10 A3017 RMK AO2 T01950097
KHHG 192215Z AUTO 00000KT 10SM CLR 20/10 A3017 RMK AO2 T02010099
KHHG 192155Z AUTO 32005KT 10SM CLR 21/10 A3017 RMK AO2 T02060099
KHHG 192135Z AUTO 32004KT 10SM CLR 21/10 A3017 RMK AO2 T02100100
KHHG 192115Z AUTO 30005KT 10SM CLR 21/10 A3017 RMK AO2 T02130097
KHHG 192055Z AUTO 27008KT 10SM CLR 22/10 A3016 RMK AO2 T02170100
KHHG 192035Z AUTO 30005KT 10SM CLR 22/10 A3016 RMK AO2 T02200099
KHHG 192015Z AUTO 27007KT 10SM CLR 22/10 A3016 RMK AO2 T02200098
KHHG 191955Z AUTO 29005KT 10SM CLR 22/10 A3016 RMK AO2 T02170095
KHHG 191935Z AUTO 27008KT 10SM CLR 22/10 A3016 RMK AO2 T02150097
KHHG 191915Z AUTO 30005KT 10SM CLR 22/10 A3016 RMK AO2 T02150098
KHHG 191855Z AUTO 28006KT 10SM CLR 21/10 A3016 RMK AO2 T02130099
KHHG 191835Z AUTO 29006KT 250V310 10SM CLR 21/10 A3017 RMK AO2 T02120101
KHHG 191815Z AUTO 27008KT 10SM CLR 21/10 A3017 RMK AO2 T02070099
KHHG 191755Z AUTO 26007KT 230V290 10SM CLR 20/10 A3017 RMK AO2 T02020100 10202 20100
KHHG 191735Z AUTO 29003KT 10SM CLR 20/10 A3018 RMK AO2 T01950097
KHHG 191715Z AUTO 31003KT 10SM CLR 19/10 A3018 RMK AO2 T01920097
KHHG 191655Z AUTO 27005KT 10SM CLR 19/10 A3018 RMK AO2 T01860098
KHHG 191635Z AUTO 29005KT 10SM CLR 18/10 A3018 RMK AO2 T01840098
KHHG 191615Z AUTO 28004KT 10SM CLR 18/10 A3018 RMK AO2 T01800097
KHHG 191555Z AUTO 26008KT 10SM CLR 17/09 A3018 RMK AO2 T01730092
KHHG 191535Z AUTO 28007KT 10SM CLR 17/09 A3018 RMK AO2 T01720094
KHHG 191515Z AUTO 27006KT 10SM CLR 16/10 A3017 RMK AO2 T01640095
KHHG 191415Z AUTO 25010G14KT 10SM CLR 15/09 A3018 RMK AO2 T01460091
KHHG 191355Z AUTO 25008KT 10SM CLR 14/09 A3017 RMK AO2 T01370091
KHHG 191335Z AUTO 24006KT 10SM CLR 13/09 A3017 RMK AO2 T01260087
KHHG 191315Z AUTO 23005KT 10SM CLR 12/09 A3015 RMK AO2 T01180085